createdAt,value
2019-03-29T00:00:46.484Z,102977.02
2019-03-29T00:03:12.278Z,102985.69
2019-03-29T00:05:38.063Z,102975.09
2019-03-29T00:08:03.857Z,102981.69
2019-03-29T00:10:29.660Z,102983.64
2019-03-29T00:12:55.466Z,102977.89
2019-03-29T00:15:21.251Z,102976.92
2019-03-29T00:17:47.032Z,102979.60
2019-03-29T00:20:12.857Z,102981.94
2019-03-29T00:22:38.649Z,102973.19
2019-03-29T00:25:05.065Z,102972.62
2019-03-29T00:27:30.872Z,102969.81
2019-03-29T00:29:56.648Z,102969.81
2019-03-29T00:32:22.447Z,102967.11
2019-03-29T00:34:48.250Z,102965.36
2019-03-29T00:37:14.067Z,102967.19
2019-03-29T00:39:40.317Z,102966.30
2019-03-29T00:42:06.902Z,102969.52
2019-03-29T00:44:32.679Z,102962.88
2019-03-29T00:46:58.477Z,102961.06
2019-03-29T00:49:24.264Z,102962.20
2019-03-29T00:51:50.948Z,102959.03
2019-03-29T00:54:16.871Z,102959.39
2019-03-29T00:56:42.667Z,102950.28
2019-03-29T00:59:08.448Z,102953.90
2019-03-29T01:01:34.244Z,102953.58
2019-03-29T01:04:00.028Z,102950.52
2019-03-29T01:06:25.818Z,102941.09
2019-03-29T01:08:52.016Z,102939.13
2019-03-29T01:11:17.814Z,102946.02
2019-03-29T01:13:43.590Z,102939.06
2019-03-29T01:16:09.377Z,102937.81
2019-03-29T01:18:35.165Z,102939.20
2019-03-29T01:21:01.016Z,102938.44
2019-03-29T01:23:26.857Z,102936.73
2019-03-29T01:25:52.636Z,102935.02
2019-03-29T01:28:18.426Z,102933.31
2019-03-29T01:30:44.200Z,102935.38
2019-03-29T01:33:10.002Z,102930.36
2019-03-29T01:35:36.099Z,102928.03
2019-03-29T01:38:02.082Z,102926.43
2019-03-29T01:40:27.865Z,102926.43
2019-03-29T01:42:53.669Z,102919.41
2019-03-29T01:45:20.050Z,102916.78
2019-03-29T01:47:45.856Z,102903.73
2019-03-29T01:50:11.732Z,102903.73
2019-03-29T01:52:37.529Z,102912.58
2019-03-29T01:55:04.911Z,102905.44
2019-03-29T01:57:30.715Z,102901.53
2019-03-29T01:59:56.492Z,102901.53
2019-03-29T02:02:22.278Z,102895.90
2019-03-29T02:04:48.075Z,102893.80
2019-03-29T02:07:13.849Z,102899.70
2019-03-29T02:09:39.647Z,102891.76
2019-03-29T02:12:06.320Z,102895.91
2019-03-29T02:14:35.437Z,102893.47
2019-03-29T02:17:01.229Z,102896.89
2019-03-29T02:19:27.062Z,102896.89
2019-03-29T02:21:52.806Z,102895.44
2019-03-29T02:24:18.619Z,102895.50
2019-03-29T02:26:44.393Z,102891.03
2019-03-29T02:29:10.954Z,102890.77
2019-03-29T02:31:36.884Z,102899.32
2019-03-29T02:34:02.669Z,102899.32
2019-03-29T02:36:28.457Z,102903.00
2019-03-29T02:38:56.223Z,102897.36
2019-03-29T02:41:21.957Z,102899.70
2019-03-29T02:43:47.758Z,102899.70
2019-03-29T02:46:13.525Z,102897.51
2019-03-29T02:48:39.318Z,102893.36
2019-03-29T02:51:05.287Z,102901.19
2019-03-29T02:53:31.227Z,102897.97
2019-03-29T02:55:57.078Z,102900.81
2019-03-29T02:58:22.897Z,102902.39
2019-03-29T03:00:48.778Z,102906.79
2019-03-29T03:03:14.556Z,102897.00
2019-03-29T03:05:40.349Z,102896.17
2019-03-29T03:08:06.123Z,102896.41
2019-03-29T03:10:31.921Z,102896.00
2019-03-29T03:12:57.736Z,102889.62
2019-03-29T03:15:23.510Z,102890.83
2019-03-29T03:17:49.286Z,102898.64
2019-03-29T03:20:15.992Z,102895.91
2019-03-29T03:22:41.981Z,102885.80
2019-03-29T03:25:08.096Z,102885.80
2019-03-29T03:27:34.379Z,102888.50
2019-03-29T03:30:00.442Z,102888.50
2019-03-29T03:32:26.368Z,102883.37
2019-03-29T03:34:52.160Z,102883.37
2019-03-29T03:37:17.931Z,102887.03
2019-03-29T03:39:43.732Z,102890.78
2019-03-29T03:42:09.517Z,102889.89
2019-03-29T03:44:35.315Z,102890.37
2019-03-29T03:47:01.099Z,102893.21
2019-03-29T03:49:26.904Z,102892.27
2019-03-29T03:51:52.684Z,102882.98
2019-03-29T03:54:18.464Z,102886.98
2019-03-29T03:56:44.852Z,102882.43
2019-03-29T03:59:10.833Z,102888.95
2019-03-29T04:01:36.624Z,102881.09
2019-03-29T04:04:02.417Z,102879.59
2019-03-29T04:06:28.197Z,102875.91
2019-03-29T04:08:53.976Z,102877.61
2019-03-29T04:11:19.771Z,102877.61
2019-03-29T04:13:45.547Z,102881.30
2019-03-29T04:16:11.365Z,102874.08
2019-03-29T04:18:37.241Z,102876.88
2019-03-29T04:21:03.044Z,102874.45
2019-03-29T04:23:28.818Z,102878.48
2019-03-29T04:25:54.727Z,102873.21
2019-03-29T04:28:20.509Z,102874.45
2019-03-29T04:30:46.301Z,102866.48
2019-03-29T04:33:12.090Z,102866.98
2019-03-29T04:35:37.878Z,102857.24
2019-03-29T04:38:03.675Z,102857.03
2019-03-29T04:40:29.487Z,102862.48
2019-03-29T04:42:56.085Z,102862.12
2019-03-29T04:45:21.867Z,102863.42
2019-03-29T04:47:47.661Z,102864.70
2019-03-29T04:50:13.446Z,102863.92
2019-03-29T04:52:39.251Z,102856.06
2019-03-29T04:55:05.245Z,102859.73
2019-03-29T04:57:31.037Z,102861.86
2019-03-29T04:59:56.831Z,102854.34
2019-03-29T05:02:22.648Z,102855.84
2019-03-29T05:04:48.430Z,102862.08
2019-03-29T05:07:14.225Z,102805.34
2019-03-29T05:09:40.019Z,102862.44
2019-03-29T05:12:05.923Z,102867.55
2019-03-29T05:14:31.698Z,102857.55
2019-03-29T05:16:57.597Z,102855.84
2019-03-29T05:19:23.375Z,102856.35
2019-03-29T05:21:49.175Z,102856.47
2019-03-29T05:24:14.945Z,102858.75
2019-03-29T05:26:40.763Z,102853.67
2019-03-29T05:29:06.540Z,102858.94
2019-03-29T05:31:32.327Z,102858.44
2019-03-29T05:33:58.120Z,102850.70
2019-03-29T05:36:23.916Z,102848.94
2019-03-29T05:38:49.706Z,102848.94
2019-03-29T05:41:15.496Z,102852.98
2019-03-29T05:43:41.301Z,102838.43
2019-03-29T05:46:07.072Z,102851.28
2019-03-29T05:48:32.879Z,102846.45
2019-03-29T05:50:58.659Z,102843.08
2019-03-29T05:53:24.469Z,102839.09
2019-03-29T05:55:50.249Z,102839.90
2019-03-29T05:58:16.041Z,102839.69
2019-03-29T06:00:41.844Z,102844.06
2019-03-29T06:03:10.029Z,102837.11
2019-03-29T06:05:35.422Z,102832.80
2019-03-29T06:08:01.208Z,102832.65
2019-03-29T06:10:26.988Z,102841.45
2019-03-29T06:12:52.800Z,102836.52
2019-03-29T06:15:18.693Z,102836.00
2019-03-29T06:17:48.944Z,102838.16
2019-03-29T06:20:12.325Z,102831.75
2019-03-29T06:22:38.111Z,102840.28
2019-03-29T06:25:05.365Z,102833.75
2019-03-29T06:27:31.218Z,102830.91
2019-03-29T06:29:57.011Z,102824.86
2019-03-29T06:32:22.904Z,102834.11
2019-03-29T06:34:48.698Z,102831.34
2019-03-29T06:37:15.784Z,102839.37
2019-03-29T06:39:41.997Z,102819.55
2019-03-29T06:42:07.899Z,102833.21
2019-03-29T06:44:33.691Z,102833.21
2019-03-29T06:46:59.555Z,102835.12
2019-03-29T06:49:25.405Z,102834.69
2019-03-29T06:51:51.166Z,102833.27
2019-03-29T06:54:16.959Z,102841.92
2019-03-29T06:56:42.739Z,102840.30
2019-03-29T06:59:08.537Z,102848.75
2019-03-29T07:01:34.321Z,102844.63
2019-03-29T07:04:00.130Z,102841.00
2019-03-29T07:06:25.922Z,102843.55
2019-03-29T07:08:51.704Z,102847.04
2019-03-29T07:11:18.193Z,102843.83
2019-03-29T07:13:56.711Z,102839.30
2019-03-29T07:16:11.825Z,102845.34
2019-03-29T07:18:37.603Z,102839.98
2019-03-29T07:21:03.407Z,102852.20
2019-03-29T07:23:29.183Z,102846.59
2019-03-29T07:25:56.570Z,102842.75
2019-03-29T07:28:22.472Z,102847.86
2019-03-29T07:30:48.267Z,102838.54
2019-03-29T07:33:14.203Z,102836.63
2019-03-29T07:35:39.961Z,102845.20
2019-03-29T07:38:05.734Z,102842.58
2019-03-29T07:40:31.531Z,102845.91
2019-03-29T07:42:57.323Z,102842.00
2019-03-29T07:45:23.142Z,102838.77
2019-03-29T07:47:48.925Z,102840.16
2019-03-29T07:50:14.721Z,102835.47
2019-03-29T07:52:40.501Z,102835.17
2019-03-29T07:55:06.697Z,102839.33
2019-03-29T07:57:32.485Z,102834.53
2019-03-29T07:59:58.295Z,102834.53
2019-03-29T08:02:24.089Z,102830.06
2019-03-29T08:04:50.469Z,102830.89
2019-03-29T08:07:27.097Z,102831.44
2019-03-29T08:09:44.886Z,102831.44
2019-03-29T08:12:10.658Z,102837.58
2019-03-29T08:14:36.443Z,102831.25
2019-03-29T08:17:02.241Z,102835.45
2019-03-29T08:19:28.029Z,102830.36
2019-03-29T08:21:53.833Z,102839.92
2019-03-29T08:24:19.604Z,102834.72
2019-03-29T08:26:45.481Z,102836.40
2019-03-29T08:29:11.291Z,102828.09
2019-03-29T08:31:37.092Z,102833.42
2019-03-29T08:34:02.899Z,102841.67
2019-03-29T08:36:28.691Z,102839.44
2019-03-29T08:38:54.464Z,102830.56
2019-03-29T08:41:20.273Z,102823.45
2019-03-29T08:43:46.061Z,102831.45
2019-03-29T08:46:11.851Z,102832.09
2019-03-29T08:48:37.646Z,102830.58
2019-03-29T08:51:03.435Z,102821.46
2019-03-29T08:53:29.238Z,102817.64
2019-03-29T08:55:55.054Z,102816.09
2019-03-29T08:58:20.835Z,102808.01
2019-03-29T09:00:46.629Z,102805.13
2019-03-29T09:03:12.430Z,102805.00
2019-03-29T09:05:39.425Z,102813.21
2019-03-29T09:08:05.503Z,102814.44
2019-03-29T09:10:31.291Z,102806.81
2019-03-29T09:12:57.088Z,102809.05
2019-03-29T09:15:22.882Z,102806.34
2019-03-29T09:17:48.672Z,102801.77
2019-03-29T09:20:14.460Z,102801.03
2019-03-29T09:22:40.260Z,102799.41
2019-03-29T09:25:06.158Z,102799.37
2019-03-29T09:27:32.346Z,102797.27
2019-03-29T09:29:58.155Z,102794.96
2019-03-29T09:32:23.951Z,102790.59
2019-03-29T09:34:49.729Z,102792.46
2019-03-29T09:37:15.528Z,102779.98
2019-03-29T09:39:41.308Z,102788.84
2019-03-29T09:42:09.543Z,102787.19
2019-03-29T09:44:34.817Z,102786.13
2019-03-29T09:47:00.619Z,102798.27
2019-03-29T09:49:26.410Z,102782.52
2019-03-29T09:51:52.218Z,102770.42
2019-03-29T09:54:20.385Z,102779.66
2019-03-29T09:56:48.401Z,102775.21
2019-03-29T09:59:16.277Z,102783.02
2019-03-29T10:01:41.088Z,102772.70
2019-03-29T10:04:06.890Z,102774.38
2019-03-29T10:06:32.690Z,102773.39
2019-03-29T10:08:58.467Z,102767.45
2019-03-29T10:11:24.275Z,102760.25
2019-03-29T10:13:50.065Z,102760.43
2019-03-29T10:16:15.873Z,102758.06
2019-03-29T10:18:41.688Z,102756.52
2019-03-29T10:21:07.598Z,102749.24
2019-03-29T10:23:33.394Z,102755.72
2019-03-29T10:25:59.219Z,102748.22
2019-03-29T10:28:25.041Z,102749.20
2019-03-29T10:30:50.890Z,102748.56
2019-03-29T10:33:16.695Z,102751.07
2019-03-29T10:35:51.547Z,102744.13
2019-03-29T10:38:10.183Z,102736.97
2019-03-29T10:40:35.995Z,102746.31
2019-03-29T10:43:01.811Z,102737.98
2019-03-29T10:45:27.614Z,102736.31
2019-03-29T10:47:53.407Z,102731.06
2019-03-29T10:50:19.211Z,102733.95
2019-03-29T10:52:45.080Z,102725.84
2019-03-29T10:55:10.865Z,102734.98
2019-03-29T10:57:36.660Z,102725.48
2019-03-29T11:00:05.649Z,102726.66
2019-03-29T11:02:31.454Z,102724.48
2019-03-29T11:04:57.235Z,102723.62
2019-03-29T11:07:23.019Z,102724.45
2019-03-29T11:09:48.799Z,102725.98
2019-03-29T11:12:14.583Z,102719.70
2019-03-29T11:14:40.369Z,102713.59
2019-03-29T11:17:06.162Z,102714.98
2019-03-29T11:19:31.961Z,102715.48
2019-03-29T11:21:57.820Z,102708.55
2019-03-29T11:24:23.708Z,102704.30
2019-03-29T11:26:49.547Z,102708.03
2019-03-29T11:29:15.336Z,102711.27
2019-03-29T11:31:41.115Z,102707.81
2019-03-29T11:34:06.919Z,102696.30
2019-03-29T11:36:32.860Z,102697.31
2019-03-29T11:38:58.661Z,102687.84
2019-03-29T11:41:24.442Z,102681.86
2019-03-29T11:43:50.232Z,102688.20
2019-03-29T11:46:16.012Z,102696.88
2019-03-29T11:48:41.816Z,102691.39
2019-03-29T11:51:18.655Z,102684.14
2019-03-29T11:53:35.430Z,102676.05
2019-03-29T11:56:01.241Z,102676.39
2019-03-29T11:58:27.046Z,102671.69
2019-03-29T12:00:52.847Z,102666.25
2019-03-29T12:03:18.643Z,102671.75
2019-03-29T12:05:44.452Z,102660.97
2019-03-29T12:08:10.247Z,102657.08
2019-03-29T12:10:36.052Z,102666.02
2019-03-29T12:13:01.836Z,102663.01
2019-03-29T12:15:27.684Z,102660.41
2019-03-29T12:17:53.468Z,102655.35
2019-03-29T12:20:19.266Z,102659.42
2019-03-29T12:22:45.058Z,102649.38
2019-03-29T12:25:10.853Z,102647.11
2019-03-29T12:27:37.463Z,102638.80
2019-03-29T12:30:05.265Z,102631.51
2019-03-29T12:32:31.054Z,102636.95
2019-03-29T12:34:56.847Z,102635.98
2019-03-29T12:37:22.649Z,102642.12
2019-03-29T12:39:48.455Z,102633.27
2019-03-29T12:42:14.230Z,102632.75
2019-03-29T12:44:40.287Z,102632.03
2019-03-29T12:47:06.074Z,102624.45
2019-03-29T12:49:31.873Z,102615.20
2019-03-29T12:51:57.677Z,102615.11
2019-03-29T12:54:23.459Z,102613.62
2019-03-29T12:56:49.247Z,102609.77
2019-03-29T12:59:15.136Z,102605.72
2019-03-29T13:01:40.942Z,102598.28
2019-03-29T13:04:09.591Z,102600.43
2019-03-29T13:06:34.506Z,102587.46
2019-03-29T13:09:00.319Z,102596.29
2019-03-29T13:11:26.114Z,102589.31
2019-03-29T13:13:51.892Z,102588.84
2019-03-29T13:16:17.682Z,102591.50
2019-03-29T13:18:43.482Z,102585.92
2019-03-29T13:21:09.283Z,102582.48
2019-03-29T13:23:35.051Z,102580.33
2019-03-29T13:26:02.589Z,102581.27
2019-03-29T13:28:28.478Z,102575.55
2019-03-29T13:30:54.271Z,102567.01
2019-03-29T13:33:20.642Z,102572.41
2019-03-29T13:35:46.658Z,102574.91
2019-03-29T13:38:12.503Z,102564.84
2019-03-29T13:40:38.299Z,102558.30
2019-03-29T13:43:04.096Z,102555.61
2019-03-29T13:45:29.999Z,102544.36
2019-03-29T13:47:55.844Z,102544.43
2019-03-29T13:50:21.642Z,102542.09
2019-03-29T13:52:47.508Z,102543.34
2019-03-29T13:55:13.840Z,102537.98
2019-03-29T13:57:39.615Z,102539.16
2019-03-29T14:00:08.310Z,102530.77
2019-03-29T14:02:34.099Z,102527.94
2019-03-29T14:04:59.876Z,102520.56
2019-03-29T14:07:25.665Z,102515.20
2019-03-29T14:09:51.463Z,102508.82
2019-03-29T14:12:17.263Z,102504.14
2019-03-29T14:14:43.049Z,102503.11
2019-03-29T14:17:08.850Z,102501.39
2019-03-29T14:19:34.627Z,102499.23
2019-03-29T14:22:00.419Z,102495.58
2019-03-29T14:24:26.224Z,102495.16
2019-03-29T14:26:52.058Z,102484.63
2019-03-29T14:29:17.838Z,102486.08
2019-03-29T14:31:43.645Z,102481.66
2019-03-29T14:34:09.512Z,102474.50
2019-03-29T14:36:35.267Z,102468.26
2019-03-29T14:39:01.051Z,102468.29
2019-03-29T14:41:26.830Z,102457.97
2019-03-29T14:43:52.622Z,102461.04
2019-03-29T14:46:18.430Z,102458.32
2019-03-29T14:48:44.253Z,102448.20
2019-03-29T14:51:10.392Z,102447.37
2019-03-29T14:53:36.143Z,102446.54
2019-03-29T14:56:01.995Z,102455.38
2019-03-29T14:58:27.785Z,102454.20
2019-03-29T15:00:53.564Z,102446.87
2019-03-29T15:03:19.546Z,102441.77
2019-03-29T15:05:45.326Z,102451.64
2019-03-29T15:08:11.135Z,102439.42
2019-03-29T15:10:36.907Z,102434.42
2019-03-29T15:13:02.819Z,102433.34
2019-03-29T15:15:28.592Z,102434.92
2019-03-29T15:17:54.382Z,102429.94
2019-03-29T15:20:21.210Z,102417.75
2019-03-29T15:22:47.002Z,102422.44
2019-03-29T15:25:12.787Z,102423.80
2019-03-29T15:27:38.602Z,102414.72
2019-03-29T15:30:05.922Z,102415.00
2019-03-29T15:32:31.712Z,102397.31
2019-03-29T15:34:57.519Z,102404.23
2019-03-29T15:37:23.314Z,102402.66
2019-03-29T15:39:49.107Z,102404.61
2019-03-29T15:42:14.893Z,102406.86
2019-03-29T15:44:40.733Z,102401.81
2019-03-29T15:47:06.499Z,102399.47
2019-03-29T15:49:32.301Z,102403.58
2019-03-29T15:51:58.086Z,102400.20
2019-03-29T15:54:23.881Z,102391.31
2019-03-29T15:56:49.679Z,102397.73
2019-03-29T15:59:15.470Z,102394.89
2019-03-29T16:01:41.256Z,102391.44
2019-03-29T16:04:07.055Z,102389.13
2019-03-29T16:06:32.850Z,102383.91
2019-03-29T16:08:58.643Z,102386.69
2019-03-29T16:11:24.431Z,102397.21
2019-03-29T16:13:50.311Z,102392.80
2019-03-29T16:16:16.106Z,102393.81
2019-03-29T16:18:41.908Z,102393.28
2019-03-29T16:21:07.712Z,102390.44
2019-03-29T16:23:33.726Z,102390.81
2019-03-29T16:25:59.536Z,102382.30
2019-03-29T16:28:25.832Z,102377.55
2019-03-29T16:30:51.632Z,102378.61
2019-03-29T16:33:17.575Z,102380.10
2019-03-29T16:35:43.375Z,102380.11
2019-03-29T16:38:09.156Z,102377.26
2019-03-29T16:40:34.970Z,102377.07
2019-03-29T16:43:00.763Z,102371.17
2019-03-29T16:45:26.555Z,102373.24
2019-03-29T16:47:52.339Z,102362.41
2019-03-29T16:50:18.458Z,102362.75
2019-03-29T16:52:44.222Z,102358.87
2019-03-29T16:55:13.763Z,102344.38
2019-03-29T16:57:37.739Z,102344.38
2019-03-29T17:00:12.016Z,102354.50
2019-03-29T17:02:36.485Z,102345.22
2019-03-29T17:05:04.070Z,102345.22
2019-03-29T17:07:30.121Z,102351.34
2019-03-29T17:09:55.916Z,102349.31
2019-03-29T17:12:21.707Z,102347.63
2019-03-29T17:14:47.518Z,102346.27
2019-03-29T17:17:13.300Z,102352.39
2019-03-29T17:19:39.099Z,102355.13
2019-03-29T17:22:05.339Z,102356.48
2019-03-29T17:24:31.401Z,102348.53
2019-03-29T17:26:57.221Z,102351.38
2019-03-29T17:29:23.023Z,102341.74
2019-03-29T17:31:48.862Z,102344.97
2019-03-29T17:34:14.647Z,102341.23
2019-03-29T17:36:40.445Z,102342.27
2019-03-29T17:39:06.372Z,102339.56
2019-03-29T17:41:32.155Z,102346.16
2019-03-29T17:43:57.941Z,102342.58
2019-03-29T17:46:23.744Z,102331.08
2019-03-29T17:48:49.526Z,102336.48
2019-03-29T17:51:15.329Z,102339.36
2019-03-29T17:53:41.119Z,102338.34
2019-03-29T17:56:06.922Z,102337.50
2019-03-29T17:58:32.694Z,102342.21
2019-03-29T18:00:58.484Z,102336.44
2019-03-29T18:03:24.275Z,102340.48
2019-03-29T18:05:50.068Z,102334.41
2019-03-29T18:08:15.879Z,102336.56
2019-03-29T18:10:41.757Z,102338.41
2019-03-29T18:13:07.555Z,102337.53
2019-03-29T18:15:33.375Z,102339.88
2019-03-29T18:17:59.168Z,102340.36
2019-03-29T18:20:24.956Z,102338.98
2019-03-29T18:22:50.754Z,102334.56
2019-03-29T18:25:16.547Z,102337.89
2019-03-29T18:27:42.365Z,102332.08
2019-03-29T18:30:09.848Z,102335.37
2019-03-29T18:32:35.762Z,102334.30
2019-03-29T18:35:02.867Z,102335.78
2019-03-29T18:37:28.660Z,102341.35
2019-03-29T18:39:55.274Z,102337.65
2019-03-29T18:42:21.158Z,102336.09
2019-03-29T18:44:47.132Z,102330.12
2019-03-29T18:47:12.946Z,102337.48
2019-03-29T18:49:38.725Z,102335.29
2019-03-29T18:52:04.520Z,102334.14
2019-03-29T18:54:30.312Z,102335.72
2019-03-29T18:56:56.104Z,102331.26
2019-03-29T18:59:21.893Z,102332.37
2019-03-29T19:01:47.701Z,102331.20
2019-03-29T19:04:13.480Z,102328.56
2019-03-29T19:06:39.290Z,102333.79
2019-03-29T19:09:05.085Z,102319.95
2019-03-29T19:11:30.882Z,102329.75
2019-03-29T19:13:56.675Z,102328.27
2019-03-29T19:16:22.486Z,102327.11
2019-03-29T19:18:48.274Z,102328.33
2019-03-29T19:21:14.071Z,102330.70
2019-03-29T19:23:39.862Z,102327.39
2019-03-29T19:26:05.660Z,102327.27
2019-03-29T19:28:31.463Z,102315.76
2019-03-29T19:30:57.249Z,102324.72
2019-03-29T19:33:27.522Z,102321.48
2019-03-29T19:35:53.303Z,102325.95
2019-03-29T19:38:19.103Z,102319.95
2019-03-29T19:40:44.890Z,102329.73
2019-03-29T19:43:10.702Z,102325.77
2019-03-29T19:45:36.479Z,102329.83
2019-03-29T19:48:02.325Z,102328.75
2019-03-29T19:50:28.177Z,102329.86
2019-03-29T19:52:53.930Z,102324.01
2019-03-29T19:55:19.777Z,102316.89
2019-03-29T19:57:46.625Z,102312.07
2019-03-29T20:00:13.396Z,102308.13
2019-03-29T20:02:39.268Z,102308.13
2019-03-29T20:05:08.900Z,102319.84
2019-03-29T20:07:34.672Z,102318.57
2019-03-29T20:10:00.470Z,102322.45
2019-03-29T20:12:26.262Z,102320.63
2019-03-29T20:14:52.063Z,102314.41
2019-03-29T20:17:27.462Z,102304.70
2019-03-29T20:19:45.563Z,102311.50
2019-03-29T20:22:11.362Z,102311.50
2019-03-29T20:24:37.156Z,102310.78
2019-03-29T20:27:02.959Z,102310.30
2019-03-29T20:29:28.759Z,102308.15
2019-03-29T20:31:54.546Z,102308.84
2019-03-29T20:34:20.366Z,102307.38
2019-03-29T20:36:46.143Z,102244.17
2019-03-29T20:39:11.916Z,102305.23
2019-03-29T20:41:37.714Z,102306.64
2019-03-29T20:44:03.501Z,102304.10
2019-03-29T20:46:29.295Z,102308.81
2019-03-29T20:48:55.080Z,102300.73
2019-03-29T20:51:20.885Z,102302.70
2019-03-29T20:53:46.687Z,102302.07
2019-03-29T20:56:12.499Z,102300.52
2019-03-29T20:58:38.274Z,102298.81
2019-03-29T21:01:04.070Z,102293.71
2019-03-29T21:03:29.866Z,102291.55
2019-03-29T21:05:55.656Z,102290.78
2019-03-29T21:08:21.430Z,102294.41
2019-03-29T21:10:55.478Z,102293.88
2019-03-29T21:13:14.917Z,102290.63
2019-03-29T21:15:40.728Z,102289.02
2019-03-29T21:18:06.510Z,102287.32
2019-03-29T21:20:32.307Z,102283.96
2019-03-29T21:22:58.098Z,102278.55
2019-03-29T21:25:23.909Z,102277.97
2019-03-29T21:27:49.718Z,102287.11
2019-03-29T21:30:16.117Z,102283.38
2019-03-29T21:32:41.915Z,102280.70
2019-03-29T21:35:08.013Z,102288.25
2019-03-29T21:37:34.827Z,102290.87
2019-03-29T21:40:00.609Z,102285.54
2019-03-29T21:42:26.394Z,102284.48
2019-03-29T21:44:52.183Z,102285.33
2019-03-29T21:47:17.979Z,102276.33
2019-03-29T21:49:43.799Z,102279.27
2019-03-29T21:52:09.567Z,102267.75
2019-03-29T21:54:35.363Z,102268.36
2019-03-29T21:57:01.152Z,102265.69
2019-03-29T21:59:26.934Z,102266.88
2019-03-29T22:01:52.730Z,102270.86
2019-03-29T22:04:18.516Z,102267.75
2019-03-29T22:06:44.330Z,102266.16
2019-03-29T22:09:10.126Z,102269.34
2019-03-29T22:11:35.917Z,102260.83
2019-03-29T22:14:01.700Z,102259.30
2019-03-29T22:16:27.506Z,102257.37
2019-03-29T22:18:53.317Z,102257.81
2019-03-29T22:21:19.095Z,102252.81
2019-03-29T22:23:44.886Z,102248.47
2019-03-29T22:26:10.666Z,102245.71
2019-03-29T22:28:36.489Z,102239.77
2019-03-29T22:31:02.294Z,102240.16
2019-03-29T22:33:28.087Z,102241.75
2019-03-29T22:35:53.866Z,102240.36
2019-03-29T22:38:19.658Z,102235.61
2019-03-29T22:40:45.540Z,102238.54
2019-03-29T22:43:11.334Z,102234.77
2019-03-29T22:45:37.113Z,102234.77
2019-03-29T22:48:02.927Z,102232.70
2019-03-29T22:50:28.725Z,102228.48
2019-03-29T22:52:54.767Z,102226.66
2019-03-29T22:55:20.608Z,102224.52
2019-03-29T22:57:46.414Z,102217.33
2019-03-29T23:00:21.452Z,102223.08
2019-03-29T23:02:47.259Z,102221.27
2019-03-29T23:05:13.035Z,102221.27
2019-03-29T23:07:38.825Z,102218.58
2019-03-29T23:10:04.822Z,102217.01
2019-03-29T23:12:30.710Z,102212.91
2019-03-29T23:14:56.498Z,102212.99
2019-03-29T23:17:22.282Z,102216.77
2019-03-29T23:19:48.097Z,102216.92
2019-03-29T23:22:13.904Z,102204.27
2019-03-29T23:24:39.705Z,102214.61
2019-03-29T23:27:05.544Z,102212.45
2019-03-29T23:29:31.331Z,102207.71
2019-03-29T23:31:57.111Z,102223.05
2019-03-29T23:34:22.911Z,102195.55
2019-03-29T23:36:48.710Z,102190.70
2019-03-29T23:39:14.504Z,102193.50
2019-03-29T23:41:40.303Z,102187.17
2019-03-29T23:44:06.089Z,102186.81
2019-03-29T23:46:31.879Z,102185.03
2019-03-29T23:48:57.667Z,102185.27
2019-03-29T23:51:23.460Z,102183.05
2019-03-29T23:53:49.257Z,102180.02
2019-03-29T23:56:15.065Z,102175.53
2019-03-29T23:58:40.870Z,102177.23
